sensor_id;sensor_type;location;lat;lon;timestamp;temperature;humidity
75719;DHT22;64340;48.534;-3.036;2023-08-07T00:01:46;18.40;70.20
75719;DHT22;64340;48.534;-3.036;2023-08-07T00:04:12;18.40;70.20
75719;DHT22;64340;48.534;-3.036;2023-08-07T00:06:37;18.40;70.10
75719;DHT22;64340;48.534;-3.036;2023-08-07T00:09:03;18.40;70.20
75719;DHT22;64340;48.534;-3.036;2023-08-07T00:11:29;18.30;70.20
75719;DHT22;64340;48.534;-3.036;2023-08-07T00:13:55;18.30;70.20
75719;DHT22;64340;48.534;-3.036;2023-08-07T00:16:20;18.30;70.20
75719;DHT22;64340;48.534;-3.036;2023-08-07T00:18:46;18.30;70.20
75719;DHT22;64340;48.534;-3.036;2023-08-07T00:21:12;18.30;70.10
75719;DHT22;64340;48.534;-3.036;2023-08-07T00:23:37;18.30;70.10
75719;DHT22;64340;48.534;-3.036;2023-08-07T00:26:03;18.30;70.00
75719;DHT22;64340;48.534;-3.036;2023-08-07T00:28:28;18.30;70.00
75719;DHT22;64340;48.534;-3.036;2023-08-07T00:30:55;18.30;70.00
75719;DHT22;64340;48.534;-3.036;2023-08-07T00:33:20;18.30;69.90
75719;DHT22;64340;48.534;-3.036;2023-08-07T00:35:46;18.30;70.00
75719;DHT22;64340;48.534;-3.036;2023-08-07T00:38:12;18.30;70.00
75719;DHT22;64340;48.534;-3.036;2023-08-07T00:40:38;18.30;70.00
75719;DHT22;64340;48.534;-3.036;2023-08-07T00:43:04;18.30;70.10
75719;DHT22;64340;48.534;-3.036;2023-08-07T00:45:29;18.20;69.90
75719;DHT22;64340;48.534;-3.036;2023-08-07T00:47:57;18.20;70.00
75719;DHT22;64340;48.534;-3.036;2023-08-07T00:50:23;18.20;70.00
75719;DHT22;64340;48.534;-3.036;2023-08-07T00:52:48;18.20;70.00
75719;DHT22;64340;48.534;-3.036;2023-08-07T00:55:14;18.20;70.00
75719;DHT22;64340;48.534;-3.036;2023-08-07T00:57:40;18.20;70.00
75719;DHT22;64340;48.534;-3.036;2023-08-07T01:00:06;18.20;70.30
75719;DHT22;64340;48.534;-3.036;2023-08-07T01:02:33;18.20;70.30
75719;DHT22;64340;48.534;-3.036;2023-08-07T01:04:58;18.20;70.40
75719;DHT22;64340;48.534;-3.036;2023-08-07T01:07:24;18.20;70.50
75719;DHT22;64340;48.534;-3.036;2023-08-07T01:09:50;18.20;70.30
75719;DHT22;64340;48.534;-3.036;2023-08-07T01:12:16;18.20;70.30
75719;DHT22;64340;48.534;-3.036;2023-08-07T01:17:16;18.20;70.30
75719;DHT22;64340;48.534;-3.036;2023-08-07T01:19:42;18.20;70.30
75719;DHT22;64340;48.534;-3.036;2023-08-07T01:22:08;18.20;70.20
75719;DHT22;64340;48.534;-3.036;2023-08-07T01:24:38;18.10;70.10
75719;DHT22;64340;48.534;-3.036;2023-08-07T01:29:42;18.10;70.00
75719;DHT22;64340;48.534;-3.036;2023-08-07T01:32:09;18.10;69.90
75719;DHT22;64340;48.534;-3.036;2023-08-07T01:34:36;18.10;69.90
75719;DHT22;64340;48.534;-3.036;2023-08-07T01:37:03;18.10;69.90
75719;DHT22;64340;48.534;-3.036;2023-08-07T01:39:29;18.10;69.90
75719;DHT22;64340;48.534;-3.036;2023-08-07T01:41:55;18.10;69.90
75719;DHT22;64340;48.534;-3.036;2023-08-07T01:44:21;18.10;70.00
75719;DHT22;64340;48.534;-3.036;2023-08-07T01:46:47;18.10;70.00
75719;DHT22;64340;48.534;-3.036;2023-08-07T01:49:12;18.10;69.90
75719;DHT22;64340;48.534;-3.036;2023-08-07T01:51:38;18.10;70.00
75719;DHT22;64340;48.534;-3.036;2023-08-07T01:54:04;18.10;70.00
75719;DHT22;64340;48.534;-3.036;2023-08-07T01:56:29;18.10;70.00
75719;DHT22;64340;48.534;-3.036;2023-08-07T01:58:55;18.00;70.00
75719;DHT22;64340;48.534;-3.036;2023-08-07T02:01:20;18.00;70.00
75719;DHT22;64340;48.534;-3.036;2023-08-07T02:03:46;18.00;70.10
75719;DHT22;64340;48.534;-3.036;2023-08-07T02:06:11;18.00;70.10
75719;DHT22;64340;48.534;-3.036;2023-08-07T02:08:37;18.00;70.10
75719;DHT22;64340;48.534;-3.036;2023-08-07T02:11:03;18.00;70.20
75719;DHT22;64340;48.534;-3.036;2023-08-07T02:13:28;18.00;70.40
75719;DHT22;64340;48.534;-3.036;2023-08-07T02:15:54;18.10;70.20
75719;DHT22;64340;48.534;-3.036;2023-08-07T02:18:19;18.10;70.30
75719;DHT22;64340;48.534;-3.036;2023-08-07T02:20:45;18.10;70.30
75719;DHT22;64340;48.534;-3.036;2023-08-07T02:23:11;18.10;70.20
75719;DHT22;64340;48.534;-3.036;2023-08-07T02:25:37;18.10;70.20
75719;DHT22;64340;48.534;-3.036;2023-08-07T02:28:03;18.10;70.50
75719;DHT22;64340;48.534;-3.036;2023-08-07T02:30:30;18.00;70.50
75719;DHT22;64340;48.534;-3.036;2023-08-07T02:32:55;18.00;70.60
75719;DHT22;64340;48.534;-3.036;2023-08-07T02:35:21;18.10;70.50
75719;DHT22;64340;48.534;-3.036;2023-08-07T02:37:46;18.10;70.00
75719;DHT22;64340;48.534;-3.036;2023-08-07T02:40:12;18.10;70.20
75719;DHT22;64340;48.534;-3.036;2023-08-07T02:42:41;18.10;70.30
75719;DHT22;64340;48.534;-3.036;2023-08-07T02:45:07;18.10;70.40
75719;DHT22;64340;48.534;-3.036;2023-08-07T02:47:33;18.00;70.30
75719;DHT22;64340;48.534;-3.036;2023-08-07T02:49:58;18.00;70.30
75719;DHT22;64340;48.534;-3.036;2023-08-07T02:52:24;18.00;70.20
75719;DHT22;64340;48.534;-3.036;2023-08-07T02:54:50;18.00;70.40
75719;DHT22;64340;48.534;-3.036;2023-08-07T02:57:16;18.00;70.30
75719;DHT22;64340;48.534;-3.036;2023-08-07T02:59:41;18.00;70.30
75719;DHT22;64340;48.534;-3.036;2023-08-07T03:02:07;18.00;70.30
75719;DHT22;64340;48.534;-3.036;2023-08-07T03:04:32;18.00;70.30
75719;DHT22;64340;48.534;-3.036;2023-08-07T03:06:58;18.00;70.30
75719;DHT22;64340;48.534;-3.036;2023-08-07T03:09:24;18.00;70.30
75719;DHT22;64340;48.534;-3.036;2023-08-07T03:11:50;18.00;70.30
75719;DHT22;64340;48.534;-3.036;2023-08-07T03:14:16;18.00;70.40
75719;DHT22;64340;48.534;-3.036;2023-08-07T03:16:41;18.00;70.30
75719;DHT22;64340;48.534;-3.036;2023-08-07T03:19:07;18.00;70.40
75719;DHT22;64340;48.534;-3.036;2023-08-07T03:21:32;18.00;70.40
75719;DHT22;64340;48.534;-3.036;2023-08-07T03:23:58;18.00;70.40
75719;DHT22;64340;48.534;-3.036;2023-08-07T03:26:24;17.90;70.30
75719;DHT22;64340;48.534;-3.036;2023-08-07T03:28:49;18.00;70.40
75719;DHT22;64340;48.534;-3.036;2023-08-07T03:31:16;18.00;70.40
75719;DHT22;64340;48.534;-3.036;2023-08-07T03:33:41;17.90;70.40
75719;DHT22;64340;48.534;-3.036;2023-08-07T03:36:07;17.90;70.50
75719;DHT22;64340;48.534;-3.036;2023-08-07T03:38:33;17.90;70.70
75719;DHT22;64340;48.534;-3.036;2023-08-07T03:40:58;17.90;70.70
75719;DHT22;64340;48.534;-3.036;2023-08-07T03:43:24;17.90;70.40
75719;DHT22;64340;48.534;-3.036;2023-08-07T03:45:56;17.90;70.40
75719;DHT22;64340;48.534;-3.036;2023-08-07T03:48:24;17.90;70.50
75719;DHT22;64340;48.534;-3.036;2023-08-07T03:50:49;17.90;70.40
75719;DHT22;64340;48.534;-3.036;2023-08-07T03:53:15;17.90;70.20
75719;DHT22;64340;48.534;-3.036;2023-08-07T03:55:41;17.90;70.00
75719;DHT22;64340;48.534;-3.036;2023-08-07T03:58:07;17.90;70.00
75719;DHT22;64340;48.534;-3.036;2023-08-07T04:00:33;17.80;70.00
75719;DHT22;64340;48.534;-3.036;2023-08-07T04:02:58;17.80;69.90
75719;DHT22;64340;48.534;-3.036;2023-08-07T04:05:24;17.80;70.00
75719;DHT22;64340;48.534;-3.036;2023-08-07T04:07:50;17.80;69.90
75719;DHT22;64340;48.534;-3.036;2023-08-07T04:10:15;17.80;70.00
75719;DHT22;64340;48.534;-3.036;2023-08-07T04:12:41;17.80;70.10
75719;DHT22;64340;48.534;-3.036;2023-08-07T04:15:06;17.80;70.00
75719;DHT22;64340;48.534;-3.036;2023-08-07T04:17:32;17.80;69.90
75719;DHT22;64340;48.534;-3.036;2023-08-07T04:19:58;17.80;70.00
75719;DHT22;64340;48.534;-3.036;2023-08-07T04:22:23;17.80;70.00
75719;DHT22;64340;48.534;-3.036;2023-08-07T04:24:49;17.80;70.20
75719;DHT22;64340;48.534;-3.036;2023-08-07T04:27:14;17.80;70.10
75719;DHT22;64340;48.534;-3.036;2023-08-07T04:29:40;17.80;70.20
75719;DHT22;64340;48.534;-3.036;2023-08-07T04:32:06;17.80;70.10
75719;DHT22;64340;48.534;-3.036;2023-08-07T04:34:32;17.80;70.20
75719;DHT22;64340;48.534;-3.036;2023-08-07T04:36:57;17.80;70.20
75719;DHT22;64340;48.534;-3.036;2023-08-07T04:39:23;17.80;70.20
75719;DHT22;64340;48.534;-3.036;2023-08-07T04:41:48;17.80;70.20
75719;DHT22;64340;48.534;-3.036;2023-08-07T04:44:17;17.80;70.20
75719;DHT22;64340;48.534;-3.036;2023-08-07T04:46:42;17.80;70.40
75719;DHT22;64340;48.534;-3.036;2023-08-07T04:49:08;17.80;70.40
75719;DHT22;64340;48.534;-3.036;2023-08-07T04:51:33;17.80;70.40
75719;DHT22;64340;48.534;-3.036;2023-08-07T04:53:59;17.80;70.30
75719;DHT22;64340;48.534;-3.036;2023-08-07T04:56:24;17.80;70.30
75719;DHT22;64340;48.534;-3.036;2023-08-07T04:58:50;17.80;70.10
75719;DHT22;64340;48.534;-3.036;2023-08-07T05:01:16;17.80;70.20
75719;DHT22;64340;48.534;-3.036;2023-08-07T05:03:41;17.80;70.00
75719;DHT22;64340;48.534;-3.036;2023-08-07T05:06:07;17.80;69.90
75719;DHT22;64340;48.534;-3.036;2023-08-07T05:08:32;17.80;69.90
75719;DHT22;64340;48.534;-3.036;2023-08-07T05:10:58;17.80;69.80
75719;DHT22;64340;48.534;-3.036;2023-08-07T05:13:24;17.80;69.80
75719;DHT22;64340;48.534;-3.036;2023-08-07T05:15:49;17.80;69.80
75719;DHT22;64340;48.534;-3.036;2023-08-07T05:18:15;17.80;69.90
75719;DHT22;64340;48.534;-3.036;2023-08-07T05:20:41;17.80;69.80
75719;DHT22;64340;48.534;-3.036;2023-08-07T05:23:07;17.80;69.80
75719;DHT22;64340;48.534;-3.036;2023-08-07T05:25:32;17.80;69.80
75719;DHT22;64340;48.534;-3.036;2023-08-07T05:27:58;17.80;69.90
75719;DHT22;64340;48.534;-3.036;2023-08-07T05:30:24;17.80;69.90
75719;DHT22;64340;48.534;-3.036;2023-08-07T05:32:49;17.80;69.90
75719;DHT22;64340;48.534;-3.036;2023-08-07T05:35:15;17.80;69.80
75719;DHT22;64340;48.534;-3.036;2023-08-07T05:37:40;17.80;69.90
75719;DHT22;64340;48.534;-3.036;2023-08-07T05:40:06;17.80;69.80
75719;DHT22;64340;48.534;-3.036;2023-08-07T05:42:32;17.80;69.90
75719;DHT22;64340;48.534;-3.036;2023-08-07T05:44:58;17.80;69.90
75719;DHT22;64340;48.534;-3.036;2023-08-07T05:47:23;17.80;69.90
75719;DHT22;64340;48.534;-3.036;2023-08-07T05:49:49;17.80;69.90
75719;DHT22;64340;48.534;-3.036;2023-08-07T05:52:15;17.80;69.90
75719;DHT22;64340;48.534;-3.036;2023-08-07T05:54:41;17.80;69.90
75719;DHT22;64340;48.534;-3.036;2023-08-07T05:57:06;17.80;69.90
75719;DHT22;64340;48.534;-3.036;2023-08-07T05:59:32;17.80;69.70
75719;DHT22;64340;48.534;-3.036;2023-08-07T06:01:59;17.80;69.80
75719;DHT22;64340;48.534;-3.036;2023-08-07T06:04:25;17.80;69.70
75719;DHT22;64340;48.534;-3.036;2023-08-07T06:06:51;17.90;69.60
75719;DHT22;64340;48.534;-3.036;2023-08-07T06:09:16;17.90;69.60
75719;DHT22;64340;48.534;-3.036;2023-08-07T06:11:42;18.00;69.50
75719;DHT22;64340;48.534;-3.036;2023-08-07T06:14:08;18.00;69.40
75719;DHT22;64340;48.534;-3.036;2023-08-07T06:16:34;18.00;69.30
75719;DHT22;64340;48.534;-3.036;2023-08-07T06:18:59;18.00;69.30
75719;DHT22;64340;48.534;-3.036;2023-08-07T06:21:25;18.00;69.30
75719;DHT22;64340;48.534;-3.036;2023-08-07T06:23:51;18.00;69.30
75719;DHT22;64340;48.534;-3.036;2023-08-07T06:26:17;18.00;69.30
75719;DHT22;64340;48.534;-3.036;2023-08-07T06:28:42;18.00;69.30
75719;DHT22;64340;48.534;-3.036;2023-08-07T06:31:08;18.00;69.40
75719;DHT22;64340;48.534;-3.036;2023-08-07T06:33:34;18.00;69.20
75719;DHT22;64340;48.534;-3.036;2023-08-07T06:36:00;18.10;69.20
75719;DHT22;64340;48.534;-3.036;2023-08-07T06:38:26;18.10;69.10
75719;DHT22;64340;48.534;-3.036;2023-08-07T06:40:52;18.10;69.00
75719;DHT22;64340;48.534;-3.036;2023-08-07T06:43:17;18.10;69.00
75719;DHT22;64340;48.534;-3.036;2023-08-07T06:45:43;18.10;69.00
75719;DHT22;64340;48.534;-3.036;2023-08-07T06:48:09;18.10;69.00
75719;DHT22;64340;48.534;-3.036;2023-08-07T06:50:34;18.20;68.90
75719;DHT22;64340;48.534;-3.036;2023-08-07T06:53:00;18.20;69.00
75719;DHT22;64340;48.534;-3.036;2023-08-07T06:55:26;18.20;68.90
75719;DHT22;64340;48.534;-3.036;2023-08-07T06:57:51;18.20;68.80
75719;DHT22;64340;48.534;-3.036;2023-08-07T07:00:17;18.20;68.80
75719;DHT22;64340;48.534;-3.036;2023-08-07T07:02:43;18.10;69.20
75719;DHT22;64340;48.534;-3.036;2023-08-07T07:05:08;18.20;68.90
75719;DHT22;64340;48.534;-3.036;2023-08-07T07:07:34;18.20;69.00
75719;DHT22;64340;48.534;-3.036;2023-08-07T07:10:00;18.20;69.00
75719;DHT22;64340;48.534;-3.036;2023-08-07T07:12:29;18.20;69.00
75719;DHT22;64340;48.534;-3.036;2023-08-07T07:14:54;18.20;69.00
75719;DHT22;64340;48.534;-3.036;2023-08-07T07:17:20;18.30;69.00
75719;DHT22;64340;48.534;-3.036;2023-08-07T07:19:45;18.30;69.00
75719;DHT22;64340;48.534;-3.036;2023-08-07T07:22:11;18.20;70.50
75719;DHT22;64340;48.534;-3.036;2023-08-07T07:24:37;18.10;70.90
75719;DHT22;64340;48.534;-3.036;2023-08-07T07:27:03;18.00;71.20
75719;DHT22;64340;48.534;-3.036;2023-08-07T07:29:30;18.00;71.10
75719;DHT22;64340;48.534;-3.036;2023-08-07T07:31:56;18.00;71.40
75719;DHT22;64340;48.534;-3.036;2023-08-07T07:34:21;18.00;71.30
75719;DHT22;64340;48.534;-3.036;2023-08-07T07:36:47;17.90;71.40
75719;DHT22;64340;48.534;-3.036;2023-08-07T07:39:13;18.00;71.50
75719;DHT22;64340;48.534;-3.036;2023-08-07T07:41:39;18.00;71.70
75719;DHT22;64340;48.534;-3.036;2023-08-07T07:44:04;18.00;71.80
75719;DHT22;64340;48.534;-3.036;2023-08-07T07:46:30;18.00;71.80
75719;DHT22;64340;48.534;-3.036;2023-08-07T07:48:58;18.10;71.70
75719;DHT22;64340;48.534;-3.036;2023-08-07T07:51:24;18.10;71.80
75719;DHT22;64340;48.534;-3.036;2023-08-07T07:53:49;18.10;71.60
75719;DHT22;64340;48.534;-3.036;2023-08-07T07:56:15;18.00;72.00
75719;DHT22;64340;48.534;-3.036;2023-08-07T07:58:40;17.80;72.20
75719;DHT22;64340;48.534;-3.036;2023-08-07T08:01:06;17.80;72.20
75719;DHT22;64340;48.534;-3.036;2023-08-07T08:03:32;17.80;72.00
75719;DHT22;64340;48.534;-3.036;2023-08-07T08:05:58;17.80;72.20
75719;DHT22;64340;48.534;-3.036;2023-08-07T08:08:24;17.70;72.30
75719;DHT22;64340;48.534;-3.036;2023-08-07T08:10:50;17.60;72.10
75719;DHT22;64340;48.534;-3.036;2023-08-07T08:13:16;17.50;72.20
75719;DHT22;64340;48.534;-3.036;2023-08-07T08:15:42;17.60;72.40
75719;DHT22;64340;48.534;-3.036;2023-08-07T08:18:08;17.80;72.10
75719;DHT22;64340;48.534;-3.036;2023-08-07T08:20:34;17.80;72.50
75719;DHT22;64340;48.534;-3.036;2023-08-07T08:22:59;17.80;72.50
75719;DHT22;64340;48.534;-3.036;2023-08-07T08:25:25;17.90;72.10
75719;DHT22;64340;48.534;-3.036;2023-08-07T08:27:51;18.00;72.20
75719;DHT22;64340;48.534;-3.036;2023-08-07T08:30:16;17.80;71.70
75719;DHT22;64340;48.534;-3.036;2023-08-07T08:32:42;17.60;71.90
75719;DHT22;64340;48.534;-3.036;2023-08-07T08:35:08;17.60;71.80
75719;DHT22;64340;48.534;-3.036;2023-08-07T08:37:34;17.70;71.80
75719;DHT22;64340;48.534;-3.036;2023-08-07T08:39:59;17.80;71.50
75719;DHT22;64340;48.534;-3.036;2023-08-07T08:42:25;18.00;71.10
75719;DHT22;64340;48.534;-3.036;2023-08-07T08:44:51;18.00;70.80
75719;DHT22;64340;48.534;-3.036;2023-08-07T08:47:17;18.10;71.00
75719;DHT22;64340;48.534;-3.036;2023-08-07T08:49:46;18.10;70.70
75719;DHT22;64340;48.534;-3.036;2023-08-07T08:52:12;18.00;70.90
75719;DHT22;64340;48.534;-3.036;2023-08-07T08:54:38;18.40;69.30
75719;DHT22;64340;48.534;-3.036;2023-08-07T08:57:06;18.40;68.60
75719;DHT22;64340;48.534;-3.036;2023-08-07T08:59:32;18.30;69.00
75719;DHT22;64340;48.534;-3.036;2023-08-07T09:01:59;18.30;68.90
75719;DHT22;64340;48.534;-3.036;2023-08-07T09:04:24;18.30;69.20
75719;DHT22;64340;48.534;-3.036;2023-08-07T09:06:52;18.40;69.10
75719;DHT22;64340;48.534;-3.036;2023-08-07T09:09:18;18.40;69.10
75719;DHT22;64340;48.534;-3.036;2023-08-07T09:11:45;18.30;69.20
75719;DHT22;64340;48.534;-3.036;2023-08-07T09:14:21;18.40;69.20
75719;DHT22;64340;48.534;-3.036;2023-08-07T09:16:47;18.40;68.70
75719;DHT22;64340;48.534;-3.036;2023-08-07T09:19:13;18.40;69.00
75719;DHT22;64340;48.534;-3.036;2023-08-07T09:21:39;18.50;69.00
75719;DHT22;64340;48.534;-3.036;2023-08-07T09:24:04;18.50;68.90
75719;DHT22;64340;48.534;-3.036;2023-08-07T09:26:32;18.50;69.00
75719;DHT22;64340;48.534;-3.036;2023-08-07T09:28:58;18.60;68.40
75719;DHT22;64340;48.534;-3.036;2023-08-07T09:31:24;18.60;68.20
75719;DHT22;64340;48.534;-3.036;2023-08-07T09:33:53;18.60;68.20
75719;DHT22;64340;48.534;-3.036;2023-08-07T09:36:18;18.60;66.90
75719;DHT22;64340;48.534;-3.036;2023-08-07T09:38:49;18.70;66.60
75719;DHT22;64340;48.534;-3.036;2023-08-07T09:41:17;18.80;66.80
75719;DHT22;64340;48.534;-3.036;2023-08-07T09:43:42;18.90;66.70
75719;DHT22;64340;48.534;-3.036;2023-08-07T09:46:08;18.80;67.00
75719;DHT22;64340;48.534;-3.036;2023-08-07T09:48:40;18.80;66.90
75719;DHT22;64340;48.534;-3.036;2023-08-07T09:51:06;19.00;66.60
75719;DHT22;64340;48.534;-3.036;2023-08-07T09:53:31;19.00;66.80
75719;DHT22;64340;48.534;-3.036;2023-08-07T09:55:58;19.00;67.10
75719;DHT22;64340;48.534;-3.036;2023-08-07T09:58:23;19.00;66.60
75719;DHT22;64340;48.534;-3.036;2023-08-07T10:00:50;18.90;64.40
75719;DHT22;64340;48.534;-3.036;2023-08-07T10:03:15;18.90;61.20
75719;DHT22;64340;48.534;-3.036;2023-08-07T10:05:44;18.90;62.90
75719;DHT22;64340;48.534;-3.036;2023-08-07T10:08:12;19.00;64.10
75719;DHT22;64340;48.534;-3.036;2023-08-07T10:10:38;19.00;64.50
75719;DHT22;64340;48.534;-3.036;2023-08-07T10:13:04;19.00;64.90
75719;DHT22;64340;48.534;-3.036;2023-08-07T10:15:31;19.00;65.00
75719;DHT22;64340;48.534;-3.036;2023-08-07T10:17:57;19.00;65.20
75719;DHT22;64340;48.534;-3.036;2023-08-07T10:20:22;18.90;64.90
75719;DHT22;64340;48.534;-3.036;2023-08-07T10:22:49;18.80;65.10
75719;DHT22;64340;48.534;-3.036;2023-08-07T10:25:16;18.80;65.40
75719;DHT22;64340;48.534;-3.036;2023-08-07T10:27:45;18.90;65.30
75719;DHT22;64340;48.534;-3.036;2023-08-07T10:30:12;18.90;64.50
75719;DHT22;64340;48.534;-3.036;2023-08-07T10:32:40;19.00;64.20
75719;DHT22;64340;48.534;-3.036;2023-08-07T10:35:06;19.20;64.00
75719;DHT22;64340;48.534;-3.036;2023-08-07T10:37:39;19.20;61.90
75719;DHT22;64340;48.534;-3.036;2023-08-07T10:40:08;19.20;62.90
75719;DHT22;64340;48.534;-3.036;2023-08-07T10:45:25;19.20;63.90
75719;DHT22;64340;48.534;-3.036;2023-08-07T10:50:46;19.50;62.40
75719;DHT22;64340;48.534;-3.036;2023-08-07T10:53:47;19.50;61.80
75719;DHT22;64340;48.534;-3.036;2023-08-07T10:56:10;19.50;61.40
75719;DHT22;64340;48.534;-3.036;2023-08-07T10:58:37;19.50;61.00
75719;DHT22;64340;48.534;-3.036;2023-08-07T11:01:27;19.60;61.60
75719;DHT22;64340;48.534;-3.036;2023-08-07T11:04:05;19.70;61.20
75719;DHT22;64340;48.534;-3.036;2023-08-07T11:06:32;19.90;61.40
75719;DHT22;64340;48.534;-3.036;2023-08-07T11:09:08;19.90;61.50
75719;DHT22;64340;48.534;-3.036;2023-08-07T11:14:06;19.90;61.90
75719;DHT22;64340;48.534;-3.036;2023-08-07T11:16:32;20.00;62.20
75719;DHT22;64340;48.534;-3.036;2023-08-07T11:18:57;19.90;62.30
75719;DHT22;64340;48.534;-3.036;2023-08-07T11:21:23;19.80;62.90
75719;DHT22;64340;48.534;-3.036;2023-08-07T11:23:49;19.80;62.60
75719;DHT22;64340;48.534;-3.036;2023-08-07T11:26:15;19.90;61.70
75719;DHT22;64340;48.534;-3.036;2023-08-07T11:28:40;19.90;61.80
75719;DHT22;64340;48.534;-3.036;2023-08-07T11:31:06;19.80;62.80
75719;DHT22;64340;48.534;-3.036;2023-08-07T11:33:31;19.70;63.30
75719;DHT22;64340;48.534;-3.036;2023-08-07T11:35:57;19.70;62.90
75719;DHT22;64340;48.534;-3.036;2023-08-07T11:40:59;19.90;63.60
75719;DHT22;64340;48.534;-3.036;2023-08-07T11:43:26;19.90;63.90
75719;DHT22;64340;48.534;-3.036;2023-08-07T11:45:52;19.90;64.20
75719;DHT22;64340;48.534;-3.036;2023-08-07T11:48:18;19.90;64.40
75719;DHT22;64340;48.534;-3.036;2023-08-07T11:50:43;19.90;64.80
75719;DHT22;64340;48.534;-3.036;2023-08-07T11:53:09;20.00;64.50
75719;DHT22;64340;48.534;-3.036;2023-08-07T11:55:36;20.10;64.00
75719;DHT22;64340;48.534;-3.036;2023-08-07T11:58:04;20.30;63.80
75719;DHT22;64340;48.534;-3.036;2023-08-07T12:00:31;20.30;63.40
75719;DHT22;64340;48.534;-3.036;2023-08-07T12:02:56;20.30;62.30
75719;DHT22;64340;48.534;-3.036;2023-08-07T12:05:22;20.30;62.60
75719;DHT22;64340;48.534;-3.036;2023-08-07T12:07:48;20.30;63.00
75719;DHT22;64340;48.534;-3.036;2023-08-07T12:10:14;20.30;62.90
75719;DHT22;64340;48.534;-3.036;2023-08-07T12:12:40;20.10;61.80
75719;DHT22;64340;48.534;-3.036;2023-08-07T12:15:08;20.10;62.70
75719;DHT22;64340;48.534;-3.036;2023-08-07T12:17:35;20.10;63.50
75719;DHT22;64340;48.534;-3.036;2023-08-07T12:20:00;20.10;63.80
75719;DHT22;64340;48.534;-3.036;2023-08-07T12:22:28;20.10;64.00
75719;DHT22;64340;48.534;-3.036;2023-08-07T12:24:54;20.10;63.90
75719;DHT22;64340;48.534;-3.036;2023-08-07T12:27:20;20.20;63.50
75719;DHT22;64340;48.534;-3.036;2023-08-07T12:29:45;20.30;62.90
75719;DHT22;64340;48.534;-3.036;2023-08-07T12:32:11;20.40;62.20
75719;DHT22;64340;48.534;-3.036;2023-08-07T12:34:37;20.50;61.60
75719;DHT22;64340;48.534;-3.036;2023-08-07T12:37:06;20.60;62.10
75719;DHT22;64340;48.534;-3.036;2023-08-07T12:39:31;20.50;61.60
75719;DHT22;64340;48.534;-3.036;2023-08-07T12:41:57;20.50;62.30
75719;DHT22;64340;48.534;-3.036;2023-08-07T12:44:23;20.40;60.70
75719;DHT22;64340;48.534;-3.036;2023-08-07T12:46:49;20.50;61.90
75719;DHT22;64340;48.534;-3.036;2023-08-07T12:49:14;20.50;61.30
75719;DHT22;64340;48.534;-3.036;2023-08-07T12:51:40;20.60;61.00
75719;DHT22;64340;48.534;-3.036;2023-08-07T12:54:06;20.50;61.40
75719;DHT22;64340;48.534;-3.036;2023-08-07T12:56:31;20.50;62.00
75719;DHT22;64340;48.534;-3.036;2023-08-07T12:58:57;20.50;61.70
75719;DHT22;64340;48.534;-3.036;2023-08-07T13:01:22;20.60;62.10
75719;DHT22;64340;48.534;-3.036;2023-08-07T13:03:48;20.50;60.30
75719;DHT22;64340;48.534;-3.036;2023-08-07T13:06:14;20.60;60.10
75719;DHT22;64340;48.534;-3.036;2023-08-07T13:08:39;20.60;60.60
75719;DHT22;64340;48.534;-3.036;2023-08-07T13:11:06;20.60;61.80
75719;DHT22;64340;48.534;-3.036;2023-08-07T13:13:31;20.50;61.80
75719;DHT22;64340;48.534;-3.036;2023-08-07T13:15:57;20.50;62.00
75719;DHT22;64340;48.534;-3.036;2023-08-07T13:18:23;20.40;61.70
75719;DHT22;64340;48.534;-3.036;2023-08-07T13:20:49;20.40;62.00
75719;DHT22;64340;48.534;-3.036;2023-08-07T13:23:15;20.40;62.50
75719;DHT22;64340;48.534;-3.036;2023-08-07T13:25:40;20.30;62.60
75719;DHT22;64340;48.534;-3.036;2023-08-07T13:28:06;20.30;62.90
75719;DHT22;64340;48.534;-3.036;2023-08-07T13:30:32;20.30;63.00
75719;DHT22;64340;48.534;-3.036;2023-08-07T13:32:58;20.30;62.70
75719;DHT22;64340;48.534;-3.036;2023-08-07T13:35:23;20.30;62.70
75719;DHT22;64340;48.534;-3.036;2023-08-07T13:37:50;20.30;62.30
75719;DHT22;64340;48.534;-3.036;2023-08-07T13:40:16;20.30;62.60
75719;DHT22;64340;48.534;-3.036;2023-08-07T13:42:41;20.30;62.80
75719;DHT22;64340;48.534;-3.036;2023-08-07T13:45:07;20.30;63.20
75719;DHT22;64340;48.534;-3.036;2023-08-07T13:47:35;20.30;63.30
75719;DHT22;64340;48.534;-3.036;2023-08-07T13:50:01;20.30;63.50
75719;DHT22;64340;48.534;-3.036;2023-08-07T13:52:27;20.30;63.50
75719;DHT22;64340;48.534;-3.036;2023-08-07T13:54:53;20.30;63.60
75719;DHT22;64340;48.534;-3.036;2023-08-07T13:57:18;20.30;63.90
75719;DHT22;64340;48.534;-3.036;2023-08-07T13:59:44;20.40;63.50
75719;DHT22;64340;48.534;-3.036;2023-08-07T14:02:09;20.50;61.60
75719;DHT22;64340;48.534;-3.036;2023-08-07T14:04:35;20.70;62.40
75719;DHT22;64340;48.534;-3.036;2023-08-07T14:07:01;20.70;61.50
75719;DHT22;64340;48.534;-3.036;2023-08-07T14:09:27;20.60;62.00
75719;DHT22;64340;48.534;-3.036;2023-08-07T14:11:53;20.50;60.20
75719;DHT22;64340;48.534;-3.036;2023-08-07T14:14:18;20.50;61.30
75719;DHT22;64340;48.534;-3.036;2023-08-07T14:16:44;20.50;60.60
75719;DHT22;64340;48.534;-3.036;2023-08-07T14:19:09;20.50;60.00
75719;DHT22;64340;48.534;-3.036;2023-08-07T14:21:35;20.60;58.60
75719;DHT22;64340;48.534;-3.036;2023-08-07T14:24:01;20.60;59.40
75719;DHT22;64340;48.534;-3.036;2023-08-07T14:26:26;20.50;59.50
75719;DHT22;64340;48.534;-3.036;2023-08-07T14:28:52;20.50;58.80
75719;DHT22;64340;48.534;-3.036;2023-08-07T14:31:17;20.50;59.10
75719;DHT22;64340;48.534;-3.036;2023-08-07T14:33:43;20.50;59.40
75719;DHT22;64340;48.534;-3.036;2023-08-07T14:36:09;20.60;59.50
75719;DHT22;64340;48.534;-3.036;2023-08-07T14:38:34;20.70;59.50
75719;DHT22;64340;48.534;-3.036;2023-08-07T14:41:00;20.70;60.00
75719;DHT22;64340;48.534;-3.036;2023-08-07T14:43:28;20.60;59.60
75719;DHT22;64340;48.534;-3.036;2023-08-07T14:45:54;20.60;59.40
75719;DHT22;64340;48.534;-3.036;2023-08-07T14:48:20;20.60;57.20
75719;DHT22;64340;48.534;-3.036;2023-08-07T14:50:46;20.60;57.70
75719;DHT22;64340;48.534;-3.036;2023-08-07T14:53:11;20.50;59.10
75719;DHT22;64340;48.534;-3.036;2023-08-07T14:55:37;20.50;59.60
75719;DHT22;64340;48.534;-3.036;2023-08-07T14:58:02;20.50;60.00
75719;DHT22;64340;48.534;-3.036;2023-08-07T15:00:28;20.50;57.80
75719;DHT22;64340;48.534;-3.036;2023-08-07T15:02:53;20.50;57.20
75719;DHT22;64340;48.534;-3.036;2023-08-07T15:05:19;20.50;58.20
75719;DHT22;64340;48.534;-3.036;2023-08-07T15:07:45;20.50;58.00
75719;DHT22;64340;48.534;-3.036;2023-08-07T15:10:10;20.50;59.60
75719;DHT22;64340;48.534;-3.036;2023-08-07T15:12:36;20.50;59.10
75719;DHT22;64340;48.534;-3.036;2023-08-07T15:15:02;20.50;58.90
75719;DHT22;64340;48.534;-3.036;2023-08-07T15:17:27;20.60;58.20
75719;DHT22;64340;48.534;-3.036;2023-08-07T15:19:53;20.60;59.40
75719;DHT22;64340;48.534;-3.036;2023-08-07T15:22:18;20.70;59.10
75719;DHT22;64340;48.534;-3.036;2023-08-07T15:24:44;20.70;59.60